QFA126 YSSY-YMML
Flight info
| Callsign | QFA126 |
|---|---|
| Flight time | 1h 8m |
| Altitude | 38000 |
| Route | TESAT H65 LEECE Q29 ML |
| Aircraft | A333/H-SDE3GHIJ2J3J5M1RVWXY/LB2D1 |
Departure
| Time | 2026-05-07 00:39 |
|---|---|
| Airport | Sydney Kingsford Smith International Airport (YSSY) |
Arrival
| Time | 2026-05-07 01:48 |
|---|---|
| Airport | Melbourne Airport (YMML) |
| Time | Latitude | Longitude | Altitude | Speed | Heading |
|---|---|---|---|---|---|
| 2026-05-07 00:17 | -33.93091 | 151.17622 | 24 ft | 0 kts | 167° |
| 2026-05-07 00:25 | -33.93086 | 151.17622 | 25 ft | 2 kts | 167° |
| 2026-05-07 00:26 | -33.93072 | 151.17618 | 25 ft | 2 kts | 167° |
| 2026-05-07 00:26 | -33.93057 | 151.17613 | 25 ft | 2 kts | 171° |
| 2026-05-07 00:26 | -33.93042 | 151.17613 | 25 ft | 2 kts | 200° |
| 2026-05-07 00:26 | -33.93029 | 151.17622 | 26 ft | 2 kts | 223° |
| 2026-05-07 00:27 | -33.93020 | 151.17636 | 26 ft | 2 kts | 246° |
| 2026-05-07 00:27 | -33.93016 | 151.17654 | 26 ft | 2 kts | 270° |
| 2026-05-07 00:27 | -33.93016 | 151.17664 | 26 ft | 0 kts | 284° |
| 2026-05-07 00:27 | -33.93017 | 151.17668 | 26 ft | 0 kts | 283° |
| 2026-05-07 00:29 | -33.93015 | 151.17654 | 26 ft | 3 kts | 283° |
| 2026-05-07 00:30 | -33.93071 | 151.17523 | 25 ft | 11 kts | 198° |
| 2026-05-07 00:30 | -33.93158 | 151.17534 | 23 ft | 13 kts | 168° |
| 2026-05-07 00:30 | -33.93255 | 151.17558 | 21 ft | 14 kts | 167° |
| 2026-05-07 00:30 | -33.93361 | 151.17586 | 19 ft | 16 kts | 169° |
| 2026-05-07 00:31 | -33.93485 | 151.17586 | 14 ft | 19 kts | 174° |
| 2026-05-07 00:31 | -33.93618 | 151.17621 | 13 ft | 19 kts | 160° |
| 2026-05-07 00:31 | -33.93740 | 151.17685 | 13 ft | 19 kts | 167° |
| 2026-05-07 00:31 | -33.93858 | 151.17746 | 14 ft | 18 kts | 142° |
| 2026-05-07 00:32 | -33.93970 | 151.17798 | 16 ft | 16 kts | 167° |
| 2026-05-07 00:32 | -33.94081 | 151.17827 | 18 ft | 15 kts | 168° |
| 2026-05-07 00:32 | -33.94178 | 151.17851 | 20 ft | 13 kts | 168° |
| 2026-05-07 00:32 | -33.94259 | 151.17871 | 23 ft | 10 kts | 168° |
| 2026-05-07 00:33 | -33.94334 | 151.17891 | 26 ft | 12 kts | 167° |
| 2026-05-07 00:33 | -33.94426 | 151.17909 | 29 ft | 13 kts | 185° |
| 2026-05-07 00:33 | -33.94517 | 151.17883 | 30 ft | 13 kts | 177° |
| 2026-05-07 00:33 | -33.94611 | 151.17906 | 30 ft | 16 kts | 167° |
| 2026-05-07 00:34 | -33.94746 | 151.17943 | 32 ft | 22 kts | 167° |
| 2026-05-07 00:34 | -33.94907 | 151.17982 | 31 ft | 24 kts | 168° |
| 2026-05-07 00:34 | -33.95024 | 151.18015 | 28 ft | 17 kts | 167° |
| 2026-05-07 00:34 | -33.95126 | 151.18042 | 25 ft | 9 kts | 167° |
| 2026-05-07 00:35 | -33.95189 | 151.18008 | 23 ft | 14 kts | 242° |
| 2026-05-07 00:35 | -33.95219 | 151.17866 | 23 ft | 18 kts | 258° |
| 2026-05-07 00:35 | -33.95241 | 151.17737 | 22 ft | 14 kts | 259° |
| 2026-05-07 00:35 | -33.95272 | 151.17622 | 20 ft | 15 kts | 233° |
| 2026-05-07 00:36 | -33.95367 | 151.17587 | 20 ft | 14 kts | 172° |
| 2026-05-07 00:36 | -33.95475 | 151.17616 | 20 ft | 17 kts | 168° |
| 2026-05-07 00:36 | -33.95607 | 151.17648 | 19 ft | 20 kts | 168° |
| 2026-05-07 00:36 | -33.95749 | 151.17686 | 20 ft | 21 kts | 167° |
| 2026-05-07 00:37 | -33.95907 | 151.17726 | 20 ft | 23 kts | 169° |
| 2026-05-07 00:37 | -33.96075 | 151.17770 | 20 ft | 25 kts | 168° |
| 2026-05-07 00:37 | -33.96248 | 151.17815 | 20 ft | 23 kts | 168° |
| 2026-05-07 00:37 | -33.96389 | 151.17853 | 18 ft | 12 kts | 162° |
| 2026-05-07 00:38 | -33.96436 | 151.17906 | 19 ft | 10 kts | 106° |
| 2026-05-07 00:38 | -33.96426 | 151.18007 | 20 ft | 12 kts | 69° |
| 2026-05-07 00:38 | -33.96348 | 151.18043 | 20 ft | 19 kts | 351° |
| 2026-05-07 00:38 | -33.96021 | 151.17958 | 20 ft | 85 kts | 347° |
| 2026-05-07 00:39 | -33.95219 | 151.17750 | 23 ft | 150 kts | 347° |
| 2026-05-07 00:39 | -33.94080 | 151.17477 | 432 ft | 171 kts | 345° |
| 2026-05-07 00:39 | -33.92942 | 151.17191 | 1289 ft | 165 kts | 332° |
| 2026-05-07 00:39 | -33.92192 | 151.16327 | 2002 ft | 149 kts | 291° |
| 2026-05-07 00:40 | -33.91695 | 151.15187 | 2352 ft | 162 kts | 295° |
| 2026-05-07 00:40 | -33.91083 | 151.13954 | 2711 ft | 181 kts | 296° |
| 2026-05-07 00:40 | -33.90386 | 151.12595 | 3164 ft | 201 kts | 297° |
| 2026-05-07 00:40 | -33.89610 | 151.11119 | 3747 ft | 217 kts | 298° |
| 2026-05-07 00:41 | -33.88746 | 151.09576 | 4331 ft | 234 kts | 304° |
| 2026-05-07 00:41 | -33.87571 | 151.08121 | 4993 ft | 250 kts | 312° |
| 2026-05-07 00:41 | -33.86633 | 151.06401 | 5845 ft | 248 kts | 285° |
| 2026-05-07 00:41 | -33.86492 | 151.04395 | 6759 ft | 247 kts | 268° |
| 2026-05-07 00:42 | -33.86608 | 151.02333 | 7687 ft | 249 kts | 266° |
| 2026-05-07 00:42 | -33.86871 | 151.00288 | 8622 ft | 251 kts | 260° |
| 2026-05-07 00:42 | -33.87416 | 150.98299 | 9409 ft | 261 kts | 250° |
| 2026-05-07 00:42 | -33.88402 | 150.96433 | 10272 ft | 271 kts | 236° |
| 2026-05-07 00:43 | -33.89894 | 150.94908 | 10790 ft | 300 kts | 217° |
| 2026-05-07 00:43 | -33.91980 | 150.94096 | 11215 ft | 335 kts | 194° |
| 2026-05-07 00:43 | -33.94412 | 150.94284 | 11583 ft | 370 kts | 172° |
| 2026-05-07 00:43 | -33.96882 | 150.95575 | 11942 ft | 399 kts | 152° |
| 2026-05-07 00:44 | -33.99401 | 150.97061 | 12444 ft | 404 kts | 168° |
| 2026-05-07 00:44 | -34.02123 | 150.97481 | 13229 ft | 394 kts | 188° |
| 2026-05-07 00:44 | -34.04771 | 150.96826 | 13942 ft | 384 kts | 209° |
| 2026-05-07 00:44 | -34.07185 | 150.95558 | 14724 ft | 389 kts | 207° |
| 2026-05-07 00:45 | -34.09819 | 150.94624 | 15387 ft | 398 kts | 204° |
| 2026-05-07 00:45 | -34.12499 | 150.93718 | 16102 ft | 403 kts | 204° |
| 2026-05-07 00:45 | -34.15230 | 150.92799 | 16740 ft | 409 kts | 204° |
| 2026-05-07 00:45 | -34.17959 | 150.91882 | 17416 ft | 413 kts | 204° |
| 2026-05-07 00:46 | -34.20733 | 150.90950 | 18075 ft | 416 kts | 205° |
| 2026-05-07 00:46 | -34.23546 | 150.90002 | 18650 ft | 422 kts | 205° |
| 2026-05-07 00:46 | -34.26389 | 150.89046 | 19312 ft | 426 kts | 205° |
| 2026-05-07 00:46 | -34.29233 | 150.88084 | 19843 ft | 431 kts | 205° |
| 2026-05-07 00:47 | -34.32153 | 150.87102 | 20434 ft | 436 kts | 205° |
| 2026-05-07 00:47 | -34.35101 | 150.86108 | 21014 ft | 439 kts | 205° |
| 2026-05-07 00:47 | -34.38018 | 150.85121 | 21591 ft | 442 kts | 205° |
| 2026-05-07 00:47 | -34.40987 | 150.84119 | 22202 ft | 444 kts | 205° |
| 2026-05-07 00:48 | -34.43989 | 150.83104 | 22660 ft | 449 kts | 205° |
| 2026-05-07 00:48 | -34.47034 | 150.82072 | 22990 ft | 458 kts | 205° |
| 2026-05-07 00:48 | -34.50081 | 150.81044 | 23639 ft | 457 kts | 205° |
| 2026-05-07 00:48 | -34.53141 | 150.79927 | 24012 ft | 454 kts | 211° |
| 2026-05-07 00:49 | -34.55824 | 150.78101 | 24513 ft | 431 kts | 229° |
| 2026-05-07 00:49 | -34.57854 | 150.75586 | 25009 ft | 412 kts | 243° |
| 2026-05-07 00:49 | -34.59587 | 150.72783 | 25415 ft | 415 kts | 244° |
| 2026-05-07 00:49 | -34.61287 | 150.69998 | 25934 ft | 415 kts | 244° |
| 2026-05-07 00:50 | -34.63010 | 150.67145 | 26323 ft | 419 kts | 244° |
| 2026-05-07 00:50 | -34.64740 | 150.64281 | 26796 ft | 421 kts | 244° |
| 2026-05-07 00:50 | -34.66460 | 150.61423 | 27168 ft | 425 kts | 244° |
| 2026-05-07 00:50 | -34.68205 | 150.58517 | 27503 ft | 429 kts | 244° |
| 2026-05-07 00:51 | -34.69941 | 150.55633 | 28150 ft | 425 kts | 244° |
| 2026-05-07 00:51 | -34.71693 | 150.52713 | 28424 ft | 430 kts | 244° |
| 2026-05-07 00:51 | -34.73452 | 150.49776 | 28883 ft | 431 kts | 244° |
| 2026-05-07 00:51 | -34.75240 | 150.46793 | 29157 ft | 435 kts | 244° |
| 2026-05-07 00:52 | -34.77008 | 150.43840 | 29536 ft | 436 kts | 244° |
| 2026-05-07 00:52 | -34.78804 | 150.40843 | 30010 ft | 434 kts | 244° |
| 2026-05-07 00:52 | -34.80564 | 150.37895 | 30469 ft | 433 kts | 244° |
| 2026-05-07 00:52 | -34.82342 | 150.34917 | 31010 ft | 429 kts | 244° |
| 2026-05-07 00:53 | -34.84068 | 150.32025 | 31514 ft | 426 kts | 244° |
| 2026-05-07 00:53 | -34.85817 | 150.29091 | 31839 ft | 427 kts | 244° |
| 2026-05-07 00:53 | -34.87561 | 150.26166 | 32145 ft | 428 kts | 244° |
| 2026-05-07 00:53 | -34.89290 | 150.23259 | 32439 ft | 427 kts | 243° |
| 2026-05-07 00:54 | -34.91022 | 150.20344 | 32826 ft | 425 kts | 243° |
| 2026-05-07 00:54 | -34.92757 | 150.17432 | 33109 ft | 426 kts | 243° |
| 2026-05-07 00:54 | -34.94519 | 150.14462 | 33313 ft | 429 kts | 243° |
| 2026-05-07 00:54 | -34.96251 | 150.11537 | 33753 ft | 426 kts | 242° |
| 2026-05-07 00:55 | -34.97977 | 150.08632 | 34181 ft | 424 kts | 243° |
| 2026-05-07 00:55 | -34.99705 | 150.05713 | 34439 ft | 425 kts | 242° |
| 2026-05-07 00:55 | -35.01431 | 150.02792 | 34731 ft | 425 kts | 242° |
| 2026-05-07 00:55 | -35.03158 | 149.99875 | 34975 ft | 427 kts | 242° |
| 2026-05-07 00:56 | -35.04888 | 149.96945 | 35303 ft | 426 kts | 241° |
| 2026-05-07 00:56 | -35.06622 | 149.94006 | 35585 ft | 426 kts | 241° |
| 2026-05-07 00:56 | -35.08354 | 149.91075 | 35883 ft | 425 kts | 241° |
| 2026-05-07 00:56 | -35.10066 | 149.88170 | 36135 ft | 426 kts | 241° |
| 2026-05-07 00:57 | -35.11808 | 149.85208 | 36373 ft | 426 kts | 241° |
| 2026-05-07 00:57 | -35.13526 | 149.82289 | 36611 ft | 426 kts | 240° |
| 2026-05-07 00:57 | -35.15246 | 149.79364 | 36852 ft | 426 kts | 241° |
| 2026-05-07 00:57 | -35.16979 | 149.76411 | 37044 ft | 426 kts | 240° |
| 2026-05-07 00:58 | -35.18697 | 149.73489 | 37262 ft | 427 kts | 240° |
| 2026-05-07 00:58 | -35.20431 | 149.70529 | 37488 ft | 425 kts | 240° |
| 2026-05-07 00:58 | -35.22154 | 149.67590 | 37695 ft | 426 kts | 240° |
| 2026-05-07 00:58 | -35.23875 | 149.64645 | 37782 ft | 428 kts | 240° |
| 2026-05-07 00:59 | -35.27348 | 149.58707 | 37986 ft | 432 kts | 240° |
| 2026-05-07 00:59 | -35.29099 | 149.55708 | 37959 ft | 436 kts | 239° |
| 2026-05-07 01:00 | -35.32641 | 149.49634 | 37971 ft | 441 kts | 239° |
| 2026-05-07 01:00 | -35.36218 | 149.43491 | 37976 ft | 445 kts | 239° |
| 2026-05-07 01:01 | -35.39805 | 149.37315 | 37976 ft | 447 kts | 239° |
| 2026-05-07 01:01 | -35.43420 | 149.31087 | 38011 ft | 449 kts | 239° |
| 2026-05-07 01:02 | -35.47035 | 149.24841 | 38007 ft | 449 kts | 239° |
| 2026-05-07 01:02 | -35.50667 | 149.18559 | 38000 ft | 451 kts | 239° |
| 2026-05-07 01:03 | -35.54274 | 149.12309 | 37994 ft | 452 kts | 239° |
| 2026-05-07 01:03 | -35.57915 | 149.05989 | 37983 ft | 453 kts | 239° |
| 2026-05-07 01:04 | -35.61528 | 148.99701 | 37971 ft | 452 kts | 239° |
| 2026-05-07 01:04 | -35.65167 | 148.93362 | 37960 ft | 451 kts | 238° |
| 2026-05-07 01:05 | -35.68760 | 148.87093 | 37963 ft | 450 kts | 239° |
| 2026-05-07 01:05 | -35.72350 | 148.80811 | 37947 ft | 449 kts | 238° |
| 2026-05-07 01:06 | -35.75949 | 148.74507 | 37937 ft | 451 kts | 238° |
| 2026-05-07 01:06 | -35.79562 | 148.68162 | 37946 ft | 451 kts | 238° |
| 2026-05-07 01:07 | -35.83149 | 148.61853 | 37948 ft | 452 kts | 238° |
| 2026-05-07 01:07 | -35.86748 | 148.55518 | 37948 ft | 453 kts | 238° |
| 2026-05-07 01:08 | -35.90355 | 148.49133 | 37954 ft | 453 kts | 238° |
| 2026-05-07 01:08 | -35.93950 | 148.42754 | 37950 ft | 453 kts | 238° |
| 2026-05-07 01:09 | -35.97545 | 148.36359 | 37980 ft | 452 kts | 237° |
| 2026-05-07 01:09 | -36.01121 | 148.29990 | 37993 ft | 452 kts | 238° |
| 2026-05-07 01:10 | -36.04696 | 148.23605 | 38010 ft | 453 kts | 238° |
| 2026-05-07 01:10 | -36.08257 | 148.17235 | 38037 ft | 452 kts | 238° |
| 2026-05-07 01:11 | -36.11819 | 148.10860 | 38060 ft | 453 kts | 238° |
| 2026-05-07 01:11 | -36.15411 | 148.04439 | 38088 ft | 453 kts | 237° |
| 2026-05-07 01:12 | -36.18972 | 147.98061 | 38105 ft | 452 kts | 237° |
| 2026-05-07 01:12 | -36.22551 | 147.91640 | 38107 ft | 453 kts | 237° |
| 2026-05-07 01:13 | -36.26124 | 147.85220 | 38096 ft | 453 kts | 237° |
| 2026-05-07 01:13 | -36.29710 | 147.78766 | 38091 ft | 453 kts | 237° |
| 2026-05-07 01:14 | -36.33273 | 147.72333 | 38089 ft | 453 kts | 237° |
| 2026-05-07 01:14 | -36.36822 | 147.65904 | 38084 ft | 453 kts | 237° |
| 2026-05-07 01:15 | -36.40380 | 147.59445 | 38083 ft | 453 kts | 237° |
| 2026-05-07 01:15 | -36.43927 | 147.52997 | 38091 ft | 452 kts | 236° |
| 2026-05-07 01:16 | -36.47469 | 147.46544 | 38093 ft | 452 kts | 237° |
| 2026-05-07 01:16 | -36.50996 | 147.40103 | 38096 ft | 452 kts | 236° |
| 2026-05-07 01:17 | -36.54529 | 147.33641 | 38105 ft | 452 kts | 237° |
| 2026-05-07 01:17 | -36.58051 | 147.27190 | 38083 ft | 452 kts | 237° |
| 2026-05-07 01:18 | -36.61554 | 147.20756 | 38106 ft | 452 kts | 237° |
| 2026-05-07 01:18 | -36.65076 | 147.14282 | 38091 ft | 443 kts | 236° |
| 2026-05-07 01:18 | -36.66780 | 147.11145 | 38094 ft | 428 kts | 237° |
| 2026-05-07 01:19 | -36.68407 | 147.08144 | 38103 ft | 421 kts | 237° |
| 2026-05-07 01:19 | -36.71679 | 147.02100 | 38113 ft | 421 kts | 237° |
| 2026-05-07 01:20 | -36.74966 | 146.96028 | 38051 ft | 425 kts | 237° |
| 2026-05-07 01:20 | -36.76609 | 146.92973 | 37529 ft | 427 kts | 236° |
| 2026-05-07 01:20 | -36.78278 | 146.89874 | 36619 ft | 433 kts | 235° |
| 2026-05-07 01:20 | -36.79938 | 146.86803 | 35878 ft | 431 kts | 234° |
| 2026-05-07 01:21 | -36.81611 | 146.83693 | 35208 ft | 429 kts | 234° |
| 2026-05-07 01:21 | -36.83253 | 146.80637 | 34559 ft | 427 kts | 233° |
| 2026-05-07 01:21 | -36.84912 | 146.77548 | 33731 ft | 428 kts | 233° |
| 2026-05-07 01:21 | -36.86550 | 146.74501 | 33140 ft | 424 kts | 232° |
| 2026-05-07 01:22 | -36.88184 | 146.71455 | 32513 ft | 424 kts | 231° |
| 2026-05-07 01:22 | -36.89811 | 146.68419 | 31784 ft | 423 kts | 230° |
| 2026-05-07 01:22 | -36.91448 | 146.65359 | 30786 ft | 427 kts | 229° |
| 2026-05-07 01:22 | -36.93073 | 146.62323 | 30120 ft | 415 kts | 228° |
| 2026-05-07 01:23 | -36.94638 | 146.59387 | 29509 ft | 400 kts | 228° |
| 2026-05-07 01:23 | -36.96159 | 146.56547 | 28864 ft | 389 kts | 227° |
| 2026-05-07 01:23 | -36.97633 | 146.53790 | 28252 ft | 376 kts | 227° |
| 2026-05-07 01:23 | -36.99062 | 146.51106 | 27642 ft | 365 kts | 226° |
| 2026-05-07 01:24 | -37.00443 | 146.48512 | 27112 ft | 352 kts | 226° |
| 2026-05-07 01:24 | -37.01774 | 146.46010 | 26638 ft | 346 kts | 226° |
| 2026-05-07 01:24 | -37.03088 | 146.43549 | 26196 ft | 339 kts | 225° |
| 2026-05-07 01:24 | -37.04384 | 146.41109 | 25765 ft | 336 kts | 225° |
| 2026-05-07 01:25 | -37.05689 | 146.38669 | 25355 ft | 337 kts | 225° |
| 2026-05-07 01:25 | -37.06978 | 146.36240 | 24974 ft | 338 kts | 225° |
| 2026-05-07 01:25 | -37.08271 | 146.33795 | 24477 ft | 337 kts | 224° |
| 2026-05-07 01:25 | -37.09553 | 146.31380 | 23990 ft | 333 kts | 224° |
| 2026-05-07 01:26 | -37.10839 | 146.28950 | 23528 ft | 331 kts | 224° |
| 2026-05-07 01:26 | -37.12091 | 146.26587 | 23068 ft | 329 kts | 224° |
| 2026-05-07 01:26 | -37.13352 | 146.24206 | 22584 ft | 327 kts | 224° |
| 2026-05-07 01:26 | -37.14601 | 146.21846 | 22108 ft | 324 kts | 226° |
| 2026-05-07 01:27 | -37.15837 | 146.19510 | 21637 ft | 322 kts | 226° |
| 2026-05-07 01:27 | -37.17063 | 146.17181 | 21165 ft | 319 kts | 226° |
| 2026-05-07 01:27 | -37.18273 | 146.14890 | 20716 ft | 316 kts | 226° |
| 2026-05-07 01:27 | -37.19488 | 146.12579 | 20260 ft | 313 kts | 226° |
| 2026-05-07 01:28 | -37.20678 | 146.10330 | 19818 ft | 311 kts | 226° |
| 2026-05-07 01:28 | -37.21875 | 146.08055 | 19368 ft | 311 kts | 226° |
| 2026-05-07 01:28 | -37.23054 | 146.05817 | 18925 ft | 308 kts | 227° |
| 2026-05-07 01:28 | -37.24218 | 146.03592 | 18473 ft | 305 kts | 227° |
| 2026-05-07 01:29 | -37.25375 | 146.01393 | 18047 ft | 302 kts | 227° |
| 2026-05-07 01:29 | -37.26533 | 145.99194 | 17602 ft | 299 kts | 228° |
| 2026-05-07 01:29 | -37.27668 | 145.97025 | 17170 ft | 297 kts | 228° |
| 2026-05-07 01:29 | -37.28792 | 145.94888 | 16728 ft | 298 kts | 229° |
| 2026-05-07 01:30 | -37.29927 | 145.92719 | 16291 ft | 299 kts | 229° |
| 2026-05-07 01:30 | -37.31063 | 145.90550 | 15833 ft | 297 kts | 229° |
| 2026-05-07 01:30 | -37.32200 | 145.88390 | 15387 ft | 295 kts | 230° |
| 2026-05-07 01:30 | -37.33329 | 145.86243 | 14925 ft | 295 kts | 231° |
| 2026-05-07 01:31 | -37.34457 | 145.84097 | 14464 ft | 294 kts | 231° |
| 2026-05-07 01:31 | -37.35569 | 145.81972 | 14011 ft | 294 kts | 231° |
| 2026-05-07 01:31 | -37.36696 | 145.79823 | 13546 ft | 293 kts | 232° |
| 2026-05-07 01:31 | -37.37807 | 145.77699 | 13071 ft | 293 kts | 232° |
| 2026-05-07 01:32 | -37.38930 | 145.75554 | 12598 ft | 292 kts | 232° |
| 2026-05-07 01:32 | -37.40037 | 145.73438 | 12156 ft | 290 kts | 233° |
| 2026-05-07 01:32 | -37.41147 | 145.71318 | 11712 ft | 289 kts | 233° |
| 2026-05-07 01:32 | -37.42239 | 145.69222 | 11326 ft | 287 kts | 233° |
| 2026-05-07 01:33 | -37.43333 | 145.67133 | 10883 ft | 284 kts | 233° |
| 2026-05-07 01:33 | -37.44364 | 145.65146 | 10772 ft | 262 kts | 234° |
| 2026-05-07 01:33 | -37.45020 | 145.62993 | 10680 ft | 269 kts | 257° |
| 2026-05-07 01:33 | -37.45030 | 145.60672 | 10626 ft | 269 kts | 264° |
| 2026-05-07 01:34 | -37.45005 | 145.58344 | 10549 ft | 266 kts | 264° |
| 2026-05-07 01:34 | -37.45028 | 145.56003 | 10471 ft | 263 kts | 255° |
| 2026-05-07 01:34 | -37.45674 | 145.53975 | 10376 ft | 242 kts | 228° |
| 2026-05-07 01:34 | -37.46987 | 145.52727 | 10279 ft | 239 kts | 200° |
| 2026-05-07 01:35 | -37.48642 | 145.52493 | 10182 ft | 243 kts | 178° |
| 2026-05-07 01:35 | -37.50312 | 145.52565 | 9990 ft | 240 kts | 194° |
| 2026-05-07 01:35 | -37.51788 | 145.51653 | 9774 ft | 238 kts | 221° |
| 2026-05-07 01:35 | -37.52745 | 145.49962 | 9542 ft | 240 kts | 237° |
| 2026-05-07 01:36 | -37.53543 | 145.48102 | 9280 ft | 241 kts | 238° |
| 2026-05-07 01:36 | -37.54278 | 145.46239 | 9032 ft | 238 kts | 240° |
| 2026-05-07 01:36 | -37.55119 | 145.44450 | 8759 ft | 238 kts | 231° |
| 2026-05-07 01:36 | -37.56070 | 145.42732 | 8283 ft | 236 kts | 232° |
| 2026-05-07 01:37 | -37.56973 | 145.41051 | 7865 ft | 232 kts | 233° |
| 2026-05-07 01:37 | -37.57853 | 145.39380 | 7465 ft | 228 kts | 233° |
| 2026-05-07 01:37 | -37.58725 | 145.37711 | 7066 ft | 224 kts | 233° |
| 2026-05-07 01:37 | -37.59569 | 145.36098 | 6688 ft | 220 kts | 233° |
| 2026-05-07 01:38 | -37.60410 | 145.34486 | 6347 ft | 219 kts | 234° |
| 2026-05-07 01:38 | -37.61246 | 145.32881 | 5979 ft | 224 kts | 234° |
| 2026-05-07 01:38 | -37.62100 | 145.31241 | 5705 ft | 223 kts | 234° |
| 2026-05-07 01:38 | -37.62925 | 145.29652 | 5682 ft | 210 kts | 234° |
| 2026-05-07 01:39 | -37.63716 | 145.28131 | 5466 ft | 205 kts | 234° |
| 2026-05-07 01:39 | -37.64477 | 145.26656 | 5316 ft | 201 kts | 237° |
| 2026-05-07 01:39 | -37.64857 | 145.24985 | 5193 ft | 196 kts | 258° |
| 2026-05-07 01:39 | -37.65020 | 145.23311 | 5087 ft | 189 kts | 256° |
| 2026-05-07 01:40 | -37.65190 | 145.21693 | 5032 ft | 186 kts | 257° |
| 2026-05-07 01:40 | -37.65362 | 145.20067 | 4990 ft | 188 kts | 257° |
| 2026-05-07 01:40 | -37.65530 | 145.18442 | 4932 ft | 184 kts | 257° |
| 2026-05-07 01:40 | -37.65688 | 145.16890 | 4864 ft | 173 kts | 256° |
| 2026-05-07 01:41 | -37.65839 | 145.15424 | 4941 ft | 169 kts | 255° |
| 2026-05-07 01:41 | -37.65993 | 145.13953 | 4908 ft | 170 kts | 256° |
| 2026-05-07 01:41 | -37.66141 | 145.12509 | 4845 ft | 165 kts | 256° |
| 2026-05-07 01:41 | -37.66288 | 145.11096 | 4781 ft | 164 kts | 256° |
| 2026-05-07 01:42 | -37.66427 | 145.09717 | 4675 ft | 151 kts | 256° |
| 2026-05-07 01:42 | -37.66559 | 145.08426 | 4443 ft | 145 kts | 255° |
| 2026-05-07 01:42 | -37.66689 | 145.07176 | 4196 ft | 145 kts | 254° |
| 2026-05-07 01:42 | -37.66897 | 145.05954 | 3816 ft | 140 kts | 248° |
| 2026-05-07 01:43 | -37.67145 | 145.04840 | 3640 ft | 128 kts | 248° |
| 2026-05-07 01:43 | -37.67317 | 145.03708 | 3453 ft | 133 kts | 264° |
| 2026-05-07 01:43 | -37.67239 | 145.02542 | 3280 ft | 135 kts | 265° |
| 2026-05-07 01:43 | -37.67174 | 145.01378 | 3081 ft | 135 kts | 264° |
| 2026-05-07 01:44 | -37.67111 | 145.00182 | 2894 ft | 137 kts | 265° |
| 2026-05-07 01:44 | -37.67042 | 144.98994 | 2698 ft | 137 kts | 265° |
| 2026-05-07 01:44 | -37.66974 | 144.97780 | 2511 ft | 137 kts | 266° |
| 2026-05-07 01:44 | -37.66905 | 144.96637 | 2296 ft | 126 kts | 266° |
| 2026-05-07 01:45 | -37.66844 | 144.95537 | 2119 ft | 125 kts | 265° |
| 2026-05-07 01:45 | -37.66783 | 144.94443 | 1959 ft | 124 kts | 266° |
| 2026-05-07 01:45 | -37.66720 | 144.93344 | 1791 ft | 124 kts | 266° |
| 2026-05-07 01:45 | -37.66656 | 144.92252 | 1622 ft | 126 kts | 266° |
| 2026-05-07 01:46 | -37.66595 | 144.91159 | 1451 ft | 127 kts | 268° |
| 2026-05-07 01:46 | -37.66530 | 144.90048 | 1281 ft | 126 kts | 268° |
| 2026-05-07 01:46 | -37.66467 | 144.88937 | 1107 ft | 127 kts | 268° |
| 2026-05-07 01:46 | -37.66402 | 144.87831 | 932 ft | 128 kts | 268° |
| 2026-05-07 01:47 | -37.66340 | 144.86703 | 765 ft | 128 kts | 269° |
| 2026-05-07 01:47 | -37.66269 | 144.85580 | 571 ft | 128 kts | 270° |
| 2026-05-07 01:47 | -37.66201 | 144.84462 | 417 ft | 126 kts | 269° |
| 2026-05-07 01:47 | -37.66155 | 144.83578 | 421 ft | 75 kts | 274° |
| 2026-05-07 01:48 | -37.66129 | 144.83148 | 417 ft | 32 kts | 270° |
| 2026-05-07 01:48 | -37.66174 | 144.82910 | 410 ft | 14 kts | 242° |
| 2026-05-07 01:48 | -37.66226 | 144.82787 | 405 ft | 17 kts | 242° |
| 2026-05-07 01:48 | -37.66327 | 144.82683 | 397 ft | 21 kts | 184° |
| 2026-05-07 01:49 | -37.66445 | 144.82794 | 390 ft | 23 kts | 99° |
| 2026-05-07 01:49 | -37.66458 | 144.82999 | 393 ft | 22 kts | 94° |
| 2026-05-07 01:49 | -37.66469 | 144.83195 | 399 ft | 25 kts | 94° |
| 2026-05-07 01:49 | -37.66482 | 144.83441 | 405 ft | 29 kts | 93° |
| 2026-05-07 01:50 | -37.66497 | 144.83699 | 409 ft | 29 kts | 95° |
| 2026-05-07 01:50 | -37.66516 | 144.83955 | 406 ft | 30 kts | 95° |
| 2026-05-07 01:50 | -37.66526 | 144.84117 | 403 ft | 16 kts | 94° |
| 2026-05-07 01:50 | -37.66531 | 144.84265 | 401 ft | 17 kts | 85° |
| 2026-05-07 01:51 | -37.66514 | 144.84410 | 402 ft | 15 kts | 81° |
| 2026-05-07 01:51 | -37.66503 | 144.84495 | 403 ft | 6 kts | 81° |
| 2026-05-07 01:51 | -37.66498 | 144.84544 | 404 ft | 4 kts | 82° |
| 2026-05-07 01:51 | -37.66494 | 144.84584 | 405 ft | 5 kts | 82° |
| 2026-05-07 01:52 | -37.66485 | 144.84653 | 406 ft | 9 kts | 80° |
| 2026-05-07 01:52 | -37.66478 | 144.84752 | 408 ft | 11 kts | 106° |
| 2026-05-07 01:52 | -37.66544 | 144.84802 | 409 ft | 11 kts | 167° |
| 2026-05-07 01:52 | -37.66623 | 144.84796 | 409 ft | 11 kts | 179° |
| 2026-05-07 01:53 | -37.66677 | 144.84808 | 408 ft | 3 kts | 148° |
| 2026-05-07 01:53 | -37.66685 | 144.84830 | 409 ft | 3 kts | 102° |
| 2026-05-07 01:53 | -37.66685 | 144.84854 | 410 ft | 2 kts | 83° |
| 2026-05-07 01:53 | -37.66683 | 144.84869 | 410 ft | 1 kts | 82° |
| 2026-05-07 01:54 | -37.66683 | 144.84874 | 410 ft | 0 kts | 82° |
| 2026-05-07 01:54 | -37.66682 | 144.84882 | 410 ft | 0 kts | 82° |